Time;durP1;ratioP1;P1;durP2;ratioP2;P2;SDS_P1;SDS_P2;PMS_P1;PMS_P2;Temp;Humidity;BMP_temperature;BMP_pressure;BME280_temperature;BME280_humidity;BME280_pressure;Samples;Min_cycle;Max_cycle;Signal;HPM_P1;HPM_P2
2023/02/17 00:01:59;;;;;;;21.38;9.18;;;;;;;9.79;100.00;101764.69;4993793;28;20054;-78
2023/02/17 00:04:30;;;;;;;25.92;9.95;;;;;;;9.69;100.00;101768.03;4995111;28;20025;-80
2023/02/17 00:06:55;;;;;;;15.40;9.45;;;;;;;9.82;100.00;101765.25;4973818;28;20033;-80
2023/02/17 00:09:21;;;;;;;16.42;8.93;;;;;;;9.83;100.00;101758.28;4993092;28;20091;-79
2023/02/17 00:11:47;;;;;;;22.63;10.88;;;;;;;9.82;100.00;101762.66;4990385;28;20050;-81
2023/02/17 00:14:13;;;;;;;15.02;8.90;;;;;;;9.88;100.00;101749.19;4994377;28;20113;-81
2023/02/17 00:16:39;;;;;;;17.17;9.60;;;;;;;9.73;100.00;101750.47;4982793;28;20166;-79
2023/02/17 00:19:22;;;;;;;19.38;9.52;;;;;;;9.71;100.00;101755.78;4993100;28;20038;-81
2023/02/17 00:21:59;;;;;;;16.63;9.50;;;;;;;9.74;100.00;101755.53;4994469;28;20422;-80
2023/02/17 00:24:27;;;;;;;19.73;10.15;;;;;;;9.82;100.00;101741.94;5006940;28;20037;-81
2023/02/17 00:26:52;;;;;;;16.08;8.75;;;;;;;9.76;100.00;101752.81;4990051;28;20064;-78
2023/02/17 00:29:18;;;;;;;21.67;9.40;;;;;;;9.80;100.00;101745.63;5023919;28;20475;-79
2023/02/17 00:31:44;;;;;;;17.95;9.68;;;;;;;9.73;100.00;101747.88;4989406;28;20038;-79
2023/02/17 00:34:10;;;;;;;15.75;9.30;;;;;;;9.78;100.00;101744.94;4991761;28;20038;-80
2023/02/17 00:36:36;;;;;;;18.65;9.05;;;;;;;9.85;100.00;101743.44;4990784;28;20050;-77
2023/02/17 00:39:02;;;;;;;16.08;9.43;;;;;;;9.83;100.00;101746.19;5006333;28;20033;-81
2023/02/17 00:41:28;;;;;;;18.35;9.07;;;;;;;9.72;100.00;101744.47;5008046;28;20095;-80
2023/02/17 00:43:56;;;;;;;18.08;9.30;;;;;;;9.73;100.00;101743.50;4975710;28;20424;-80
2023/02/17 00:46:22;;;;;;;16.88;8.65;;;;;;;9.71;100.00;101742.81;4974906;28;20096;-80
2023/02/17 00:48:48;;;;;;;14.85;8.88;;;;;;;9.79;100.00;101741.38;5005834;28;20033;-78
2023/02/17 00:51:15;;;;;;;17.98;9.70;;;;;;;9.75;100.00;101751.97;5008665;28;20104;-80
2023/02/17 00:53:40;;;;;;;18.13;9.55;;;;;;;9.81;100.00;101755.81;4990330;28;20041;-78
2023/02/17 00:56:07;;;;;;;20.65;9.65;;;;;;;9.75;100.00;101749.38;4988791;28;20529;-80
2023/02/17 00:58:32;;;;;;;15.93;8.70;;;;;;;9.74;100.00;101745.19;4969803;28;20034;-77
2023/02/17 01:00:58;;;;;;;19.88;9.52;;;;;;;9.74;100.00;101742.59;5005749;28;20096;-81
2023/02/17 01:03:25;;;;;;;16.98;9.45;;;;;;;9.74;100.00;101744.38;4974840;28;20029;-81
2023/02/17 01:05:50;;;;;;;17.85;9.73;;;;;;;9.72;100.00;101734.13;4977306;28;20046;-80
2023/02/17 01:08:17;;;;;;;21.00;9.50;;;;;;;9.67;100.00;101730.28;4995374;28;20042;-81
2023/02/17 01:10:44;;;;;;;15.05;9.07;;;;;;;9.79;100.00;101729.25;4992576;28;20438;-81
2023/02/17 01:13:11;;;;;;;15.38;9.02;;;;;;;9.72;100.00;101728.13;4997147;28;20111;-80
2023/02/17 01:15:47;;;;;;;18.05;8.38;;;;;;;9.70;100.00;101724.81;4993289;28;20041;-81
2023/02/17 01:18:14;;;;;;;17.45;9.43;;;;;;;9.83;100.00;101714.25;4991755;28;20057;-79
2023/02/17 01:20:41;;;;;;;17.38;8.70;;;;;;;9.78;100.00;101714.66;5007568;28;20057;-81
2023/02/17 01:23:09;;;;;;;16.13;9.38;;;;;;;9.80;100.00;101712.75;4992634;28;20042;-79
2023/02/17 01:25:39;;;;;;;18.35;9.55;;;;;;;9.69;100.00;101708.47;4976580;28;20042;-81
2023/02/17 01:28:05;;;;;;;18.05;9.07;;;;;;;9.64;100.00;101714.97;4992288;28;20112;-80
2023/02/17 01:30:30;;;;;;;13.80;8.57;;;;;;;9.77;100.00;101712.19;5008188;28;20867;-81
2023/02/17 01:32:56;;;;;;;17.50;9.15;;;;;;;9.77;100.00;101705.22;4971122;28;20075;-80
2023/02/17 01:35:21;;;;;;;20.58;8.90;;;;;;;9.79;100.00;101705.13;4990488;28;20038;-80
2023/02/17 01:37:47;;;;;;;14.73;8.27;;;;;;;9.74;100.00;101705.50;4972377;28;20037;-78
2023/02/17 01:40:13;;;;;;;18.00;9.18;;;;;;;9.68;100.00;101691.31;4988293;28;20388;-81
2023/02/17 01:42:39;;;;;;;15.90;9.10;;;;;;;9.73;100.00;101701.25;4990456;28;20037;-82
2023/02/17 01:45:16;;;;;;;14.57;8.43;;;;;;;9.78;100.00;101698.31;4972379;28;20037;-80
2023/02/17 01:48:02;;;;;;;15.80;9.07;;;;;;;9.83;100.00;101685.75;4969555;28;20045;-78
2023/02/17 01:50:32;;;;;;;14.63;8.65;;;;;;;9.79;100.00;101700.75;4990274;28;20045;-82
2023/02/17 01:53:01;;;;;;;19.48;8.98;;;;;;;9.77;100.00;101696.66;5021116;28;20121;-80
2023/02/17 01:55:28;;;;;;;16.90;8.95;;;;;;;9.76;100.00;101688.06;5007269;28;20048;-80
2023/02/17 01:57:58;;;;;;;17.50;9.07;;;;;;;9.82;100.00;101672.00;4995131;28;20052;-79
2023/02/17 02:00:27;;;;;;;13.70;8.88;;;;;;;9.82;100.00;101677.19;4992281;28;20057;-82
2023/02/17 02:02:53;;;;;;;15.82;8.50;;;;;;;9.89;100.00;101672.31;4997057;28;20041;-80
2023/02/17 02:05:20;;;;;;;17.30;8.43;;;;;;;9.73;100.00;101680.53;4981456;28;20038;-80
2023/02/17 02:07:47;;;;;;;17.92;9.50;;;;;;;9.71;100.00;101666.91;5012574;28;20034;-81
2023/02/17 02:10:15;;;;;;;14.82;8.60;;;;;;;9.79;100.00;101667.06;4983589;28;20069;-81
2023/02/17 02:12:41;;;;;;;13.07;8.07;;;;;;;9.71;100.00;101669.50;4989425;28;20066;-77
2023/02/17 02:15:12;;;;;;;15.20;8.90;;;;;;;9.73;100.00;101665.00;4988153;28;20104;-81
2023/02/17 02:17:59;;;;;;;16.55;9.10;;;;;;;9.75;100.00;101660.50;4991903;28;20083;-79
2023/02/17 02:20:57;;;;;;;13.10;8.02;;;;;;;9.89;100.00;101661.97;4971965;28;20052;-80
2023/02/17 02:23:34;;;;;;;17.00;8.80;;;;;;;9.81;100.00;101669.53;5006413;28;20037;-80
2023/02/17 02:26:24;;;;;;;12.27;8.35;;;;;;;9.77;100.00;101671.56;4989152;28;20050;-81
2023/02/17 02:29:08;;;;;;;15.45;8.75;;;;;;;9.76;100.00;101662.16;5007848;28;20040;-77
2023/02/17 02:31:56;;;;;;;18.27;9.32;;;;;;;9.75;100.00;101665.69;4994246;28;20065;-78
2023/02/17 02:34:31;;;;;;;15.75;8.40;;;;;;;9.78;100.00;101669.81;4985505;28;20038;-81
2023/02/17 02:37:09;;;;;;;14.25;8.82;;;;;;;9.82;100.00;101661.63;4986885;28;20046;-80
2023/02/17 02:39:41;;;;;;;14.52;8.90;;;;;;;9.84;100.00;101659.75;4991776;28;20208;-79
2023/02/17 02:42:11;;;;;;;12.23;8.40;;;;;;;9.80;100.00;101654.97;4972507;28;20033;-79
2023/02/17 02:44:37;;;;;;;15.15;8.68;;;;;;;9.85;100.00;101658.81;4989762;28;20479;-80
2023/02/17 02:47:41;;;;;;;12.90;8.43;;;;;;;9.79;100.00;101654.13;4988225;28;21388;-80
2023/02/17 02:50:09;;;;;;;13.43;8.02;;;;;;;9.87;100.00;101661.25;4992280;28;20091;-80
2023/02/17 02:52:54;;;;;;;19.13;9.02;;;;;;;9.91;100.00;101658.28;4988196;28;20121;-82
2023/02/17 02:55:36;;;;;;;12.90;8.48;;;;;;;9.81;100.00;101641.84;4968527;28;20030;-81
2023/02/17 02:58:07;;;;;;;12.55;8.52;;;;;;;9.82;100.00;101640.09;5006240;28;20038;-80
2023/02/17 03:01:02;;;;;;;12.02;8.05;;;;;;;9.81;100.00;101641.84;4993476;28;20065;-80
2023/02/17 03:03:30;;;;;;;17.58;8.32;;;;;;;9.82;100.00;101635.75;5001723;28;20093;-78
2023/02/17 03:06:08;;;;;;;15.63;8.85;;;;;;;9.85;100.00;101630.31;4976341;28;20125;-80
2023/02/17 03:08:37;;;;;;;12.93;8.50;;;;;;;9.89;100.00;101628.28;4981414;28;20040;-79
2023/02/17 03:11:03;;;;;;;14.07;8.63;;;;;;;9.90;100.00;101625.53;4970484;28;20082;-79
2023/02/17 03:13:38;;;;;;;15.32;8.57;;;;;;;9.74;100.00;101622.63;5004993;28;20030;-79
2023/02/17 03:16:06;;;;;;;12.07;8.67;;;;;;;9.84;100.00;101618.28;4979320;28;20131;-79
2023/02/17 03:18:32;;;;;;;11.88;8.13;;;;;;;9.85;100.00;101612.19;4992820;28;20036;-77
2023/02/17 03:21:05;;;;;;;14.35;9.27;;;;;;;9.81;100.00;101615.94;4984682;28;20048;-80
2023/02/17 03:23:30;;;;;;;13.93;8.63;;;;;;;9.77;100.00;101606.00;4987288;28;20030;-80
2023/02/17 03:25:57;;;;;;;15.48;8.80;;;;;;;9.82;100.00;101619.38;4988289;28;22400;-81
2023/02/17 03:28:23;;;;;;;14.52;9.10;;;;;;;9.81;100.00;101612.56;4992422;28;20111;-79
2023/02/17 03:30:49;;;;;;;14.77;8.85;;;;;;;9.73;100.00;101618.38;4976090;28;20034;-77
2023/02/17 03:33:15;;;;;;;13.20;9.00;;;;;;;9.90;100.00;101614.34;4967923;28;20038;-78
2023/02/17 03:35:40;;;;;;;14.32;8.93;;;;;;;9.78;100.00;101605.88;4987843;28;20042;-77
2023/02/17 03:38:05;;;;;;;11.68;8.10;;;;;;;9.75;100.00;101624.25;5004224;28;20752;-79
2023/02/17 03:40:31;;;;;;;14.32;8.98;;;;;;;9.88;100.00;101608.50;5002284;28;21649;-79
2023/02/17 03:42:56;;;;;;;18.70;10.32;;;;;;;9.87;100.00;101609.44;4990854;28;20041;-79
2023/02/17 03:45:22;;;;;;;15.23;8.75;;;;;;;9.89;100.00;101615.31;5007464;28;20125;-82
2023/02/17 03:47:48;;;;;;;15.25;9.35;;;;;;;9.82;100.00;101603.84;4992871;28;20038;-81
2023/02/17 03:50:13;;;;;;;15.63;9.48;;;;;;;9.80;100.00;101603.97;4992877;28;20099;-80
2023/02/17 03:52:39;;;;;;;17.20;9.43;;;;;;;9.89;100.00;101608.38;5010473;28;20064;-79
2023/02/17 03:55:04;;;;;;;15.90;8.80;;;;;;;9.87;100.00;101609.44;4992041;28;20030;-81
2023/02/17 03:57:31;;;;;;;14.30;9.30;;;;;;;9.73;100.00;101616.59;4998448;28;20490;-81
2023/02/17 03:59:57;;;;;;;13.45;9.63;;;;;;;9.91;100.00;101611.66;4995887;28;20037;-82
2023/02/17 04:02:22;;;;;;;12.60;8.90;;;;;;;9.84;100.00;101620.06;4982382;28;20038;-80
2023/02/17 04:04:48;;;;;;;16.40;8.93;;;;;;;9.84;100.00;101618.28;4982920;28;20108;-81
2023/02/17 04:07:13;;;;;;;17.23;9.95;;;;;;;9.90;100.00;101619.53;4998376;28;20845;-79
2023/02/17 04:09:39;;;;;;;18.42;9.50;;;;;;;9.83;100.00;101632.22;4995777;28;20030;-81
2023/02/17 04:12:04;;;;;;;18.30;8.82;;;;;;;9.83;100.00;101636.56;4997762;28;20493;-81
2023/02/17 04:14:30;;;;;;;16.13;9.35;;;;;;;9.82;100.00;101627.97;5001911;28;20048;-78
2023/02/17 04:16:55;;;;;;;15.63;8.80;;;;;;;9.93;100.00;101621.88;4993836;28;20037;-81
2023/02/17 04:19:21;;;;;;;13.70;9.07;;;;;;;9.84;100.00;101626.06;4995627;28;20041;-81
2023/02/17 04:21:46;;;;;;;15.80;9.05;;;;;;;9.85;100.00;101621.69;4996107;28;20522;-78
2023/02/17 04:24:12;;;;;;;16.13;8.82;;;;;;;9.70;100.00;101622.06;5011894;28;20033;-81
2023/02/17 04:26:37;;;;;;;17.02;10.57;;;;;;;9.75;100.00;101619.06;4991024;28;20045;-79
2023/02/17 04:29:04;;;;;;;15.27;9.27;;;;;;;9.80;100.00;101626.47;4995228;28;20513;-77
2023/02/17 04:31:29;;;;;;;17.80;10.55;;;;;;;9.75;100.00;101619.88;5013341;28;20045;-81
2023/02/17 04:33:55;;;;;;;15.18;9.38;;;;;;;9.81;100.00;101625.50;4978891;28;20364;-80
2023/02/17 04:36:21;;;;;;;17.80;10.38;;;;;;;9.81;100.00;101618.53;5011222;28;20526;-81
2023/02/17 04:38:46;;;;;;;17.88;8.73;;;;;;;9.91;100.00;101623.78;4995815;28;20038;-79
2023/02/17 04:41:12;;;;;;;14.65;8.68;;;;;;;9.85;100.00;101621.69;5010062;28;20037;-79
2023/02/17 04:43:37;;;;;;;16.45;9.05;;;;;;;9.87;100.00;101623.22;5006470;28;20510;-80
2023/02/17 04:46:03;;;;;;;14.15;8.68;;;;;;;9.85;100.00;101634.66;4993281;28;20038;-81
2023/02/17 04:48:28;;;;;;;13.80;8.57;;;;;;;9.79;100.00;101620.44;4973067;28;20033;-78
2023/02/17 04:50:54;;;;;;;15.02;10.15;;;;;;;9.82;100.00;101620.19;4995068;28;20042;-82
2023/02/17 04:53:19;;;;;;;13.20;7.75;;;;;;;9.93;100.00;101625.28;4990877;28;20030;-80
2023/02/17 04:55:52;;;;;;;12.98;8.32;;;;;;;9.89;100.00;101638.63;4995384;28;20038;-80
2023/02/17 04:58:18;;;;;;;16.33;9.07;;;;;;;9.90;100.00;101648.03;4994171;28;20684;-80
2023/02/17 05:00:46;;;;;;;15.15;9.55;;;;;;;9.90;100.00;101654.03;5009934;28;20088;-80
2023/02/17 05:03:11;;;;;;;13.57;8.82;;;;;;;9.86;100.00;101631.94;4990383;28;20030;-80
2023/02/17 05:05:36;;;;;;;13.18;8.32;;;;;;;9.88;100.00;101631.81;4992710;28;20466;-81
2023/02/17 05:08:02;;;;;;;14.20;8.70;;;;;;;9.82;100.00;101627.97;4993433;28;20037;-78
2023/02/17 05:10:28;;;;;;;15.13;9.38;;;;;;;9.91;100.00;101629.78;4995201;28;20038;-79
2023/02/17 05:12:53;;;;;;;15.90;8.63;;;;;;;9.87;100.00;101623.22;4993116;28;20041;-81
2023/02/17 05:15:19;;;;;;;16.85;9.05;;;;;;;9.84;100.00;101613.09;4975737;28;20042;-78
2023/02/17 05:17:44;;;;;;;14.70;9.10;;;;;;;9.91;100.00;101618.59;4995242;28;20044;-80
2023/02/17 05:20:10;;;;;;;15.55;9.23;;;;;;;9.89;100.00;101610.97;4972596;28;20030;-80
2023/02/17 05:22:36;;;;;;;15.00;8.73;;;;;;;9.97;100.00;101609.47;5012508;28;20030;-80
2023/02/17 05:25:02;;;;;;;16.48;10.02;;;;;;;10.01;100.00;101596.13;4993019;28;20434;-82
2023/02/17 05:27:28;;;;;;;15.80;9.30;;;;;;;10.06;100.00;101600.91;5008545;28;20038;-82
2023/02/17 05:29:54;;;;;;;15.73;9.55;;;;;;;9.91;100.00;101597.88;5008029;28;20026;-79
2023/02/17 05:32:21;;;;;;;14.90;8.52;;;;;;;9.98;100.00;101595.56;4993768;28;20550;-80
2023/02/17 05:34:46;;;;;;;15.02;8.85;;;;;;;9.95;100.00;101594.06;4991436;28;20044;-78
2023/02/17 05:37:12;;;;;;;15.98;8.75;;;;;;;10.00;100.00;101585.88;5006236;28;20037;-80
2023/02/17 05:39:37;;;;;;;13.27;8.52;;;;;;;9.89;100.00;101584.25;4975457;28;20100;-82
2023/02/17 05:42:03;;;;;;;15.63;8.60;;;;;;;9.93;100.00;101583.00;5004858;28;20038;-79
2023/02/17 05:44:28;;;;;;;12.23;7.97;;;;;;;9.99;100.00;101590.25;4991240;28;20410;-79
2023/02/17 05:46:54;;;;;;;13.00;7.25;;;;;;;9.97;100.00;101586.16;5018178;28;20038;-79
2023/02/17 05:49:19;;;;;;;12.45;7.35;;;;;;;10.04;100.00;101584.66;5012644;28;20033;-81
2023/02/17 05:51:45;;;;;;;15.30;7.43;;;;;;;10.02;100.00;101589.16;4990541;28;20034;-78
2023/02/17 05:54:10;;;;;;;13.73;7.75;;;;;;;9.96;100.00;101598.28;5006952;28;20895;-80
2023/02/17 05:56:36;;;;;;;15.13;7.45;;;;;;;9.95;100.00;101601.84;4988486;28;20048;-80
2023/02/17 05:59:01;;;;;;;11.75;7.38;;;;;;;10.06;100.00;101611.28;4997694;28;20029;-80
2023/02/17 06:01:27;;;;;;;13.32;8.32;;;;;;;9.96;100.00;101603.47;4987016;28;20042;-77
2023/02/17 06:03:52;;;;;;;10.73;6.85;;;;;;;10.05;100.00;101591.50;4991464;28;20057;-80
2023/02/17 06:06:18;;;;;;;15.25;7.10;;;;;;;10.03;100.00;101591.63;4997226;28;20037;-81
2023/02/17 06:08:44;;;;;;;11.57;7.50;;;;;;;10.03;100.00;101589.03;4991550;28;20129;-78
2023/02/17 06:11:09;;;;;;;12.90;7.15;;;;;;;10.08;100.00;101591.22;5025867;28;20038;-79
2023/02/17 06:13:35;;;;;;;18.27;7.55;;;;;;;10.05;100.00;101594.09;4993720;28;20033;-80
2023/02/17 06:16:00;;;;;;;12.95;6.80;;;;;;;10.01;100.00;101577.97;4991711;28;20033;-80
2023/02/17 06:18:26;;;;;;;11.65;8.07;;;;;;;10.06;100.00;101590.56;4993813;28;20103;-77
2023/02/17 06:20:56;;;;;;;10.38;7.10;;;;;;;9.98;100.00;101580.81;4975528;28;20050;-80
2023/02/17 06:23:23;;;;;;;12.23;7.95;;;;;;;10.05;100.00;101573.34;4991429;28;20121;-80
2023/02/17 06:25:49;;;;;;;11.95;7.85;;;;;;;10.07;100.00;101580.03;4978749;28;20132;-80
2023/02/17 06:28:14;;;;;;;13.35;8.43;;;;;;;10.03;100.00;101590.81;5009694;28;20057;-81
2023/02/17 06:30:40;;;;;;;12.40;8.13;;;;;;;10.05;100.00;101596.69;4989649;28;20084;-81
2023/02/17 06:33:05;;;;;;;14.13;8.32;;;;;;;10.08;100.00;101592.03;5009466;28;20598;-78
2023/02/17 06:35:31;;;;;;;13.15;7.60;;;;;;;10.08;100.00;101596.41;4975756;28;20033;-80
2023/02/17 06:37:56;;;;;;;12.38;8.20;;;;;;;10.01;100.00;101605.66;5021362;28;20956;-81
2023/02/17 06:40:22;;;;;;;12.85;7.80;;;;;;;10.07;100.00;101603.34;4989772;28;20108;-80
2023/02/17 06:42:47;;;;;;;14.23;8.77;;;;;;;9.96;100.00;101592.28;5010398;28;20045;-80
2023/02/17 06:45:13;;;;;;;13.88;8.93;;;;;;;10.01;100.00;101590.94;4990287;28;20042;-80
2023/02/17 06:47:38;;;;;;;14.90;9.30;;;;;;;10.04;100.00;101592.44;4992679;28;20030;-81
2023/02/17 06:50:05;;;;;;;14.68;9.18;;;;;;;9.94;100.00;101597.59;4987091;28;20034;-77
2023/02/17 06:52:30;;;;;;;18.90;9.32;;;;;;;9.99;100.00;101586.84;5006747;28;20072;-78
2023/02/17 06:54:55;;;;;;;14.38;9.30;;;;;;;9.94;100.00;101593.25;4990854;28;20033;-81
2023/02/17 06:57:21;;;;;;;15.15;9.60;;;;;;;9.89;100.00;101573.88;4995297;28;20096;-80
2023/02/17 06:59:46;;;;;;;15.98;10.77;;;;;;;9.83;100.00;101587.34;5006185;28;20665;-81
2023/02/17 07:02:13;;;;;;;51.67;26.00;;;;;;;9.79;100.00;101588.56;5007390;28;20487;-81
2023/02/17 07:04:40;;;;;;;20.48;13.68;;;;;;;9.80;100.00;101587.63;4997712;28;20068;-82
2023/02/17 07:07:06;;;;;;;16.23;10.63;;;;;;;9.92;100.00;101589.13;4991846;28;20644;-81
2023/02/17 07:09:32;;;;;;;10.55;8.10;;;;;;;9.93;100.00;101601.16;4989703;28;20506;-80
2023/02/17 07:11:57;;;;;;;14.77;9.85;;;;;;;9.89;100.00;101586.81;4990125;28;20041;-80
2023/02/17 07:14:24;;;;;;;16.17;9.50;;;;;;;9.88;100.00;101582.59;4994907;28;20046;-79
2023/02/17 07:16:49;;;;;;;14.20;9.43;;;;;;;9.90;100.00;101585.88;4975917;28;20049;-81
2023/02/17 07:19:15;;;;;;;14.32;9.60;;;;;;;9.91;100.00;101601.28;4999979;28;20030;-79
2023/02/17 07:21:41;;;;;;;17.38;9.90;;;;;;;9.92;100.00;101612.44;4990958;28;20278;-81
2023/02/17 07:24:07;;;;;;;13.52;9.20;;;;;;;10.00;100.00;101599.69;5006626;28;21490;-81
2023/02/17 07:26:39;;;;;;;16.40;10.45;;;;;;;9.99;100.00;101602.41;4992511;28;20034;-77
2023/02/17 07:29:06;;;;;;;12.68;8.75;;;;;;;9.93;100.00;101606.34;4994978;28;20067;-81
2023/02/17 07:31:32;;;;;;;15.65;9.38;;;;;;;9.93;100.00;101608.94;4988480;28;20038;-83
2023/02/17 07:33:59;;;;;;;12.52;8.80;;;;;;;9.90;100.00;101604.81;4987997;28;20084;-80
2023/02/17 07:36:24;;;;;;;15.75;9.27;;;;;;;9.89;100.00;101605.78;5004775;28;20053;-82
2023/02/17 07:38:50;;;;;;;13.75;9.38;;;;;;;9.90;100.00;101601.41;4991389;28;20037;-81
2023/02/17 07:41:18;;;;;;;14.82;8.57;;;;;;;10.03;100.00;101596.81;5004478;28;20038;-80
2023/02/17 07:43:45;;;;;;;13.25;8.77;;;;;;;10.03;100.00;101603.75;4987895;28;20037;-79
2023/02/17 07:46:12;;;;;;;14.68;9.18;;;;;;;10.05;100.00;101607.03;4987974;28;20033;-80
2023/02/17 07:48:38;;;;;;;16.23;8.93;;;;;;;10.11;100.00;101616.88;4970488;28;20038;-79
2023/02/17 07:51:05;;;;;;;16.70;9.07;;;;;;;10.10;100.00;101621.25;5006381;28;20053;-79
2023/02/17 07:53:31;;;;;;;12.32;8.13;;;;;;;10.13;100.00;101612.38;4989230;28;20061;-81
2023/02/17 07:55:56;;;;;;;15.88;8.68;;;;;;;10.12;100.00;101608.16;4994593;28;20057;-80
2023/02/17 07:58:21;;;;;;;12.50;8.00;;;;;;;10.16;100.00;101619.06;4993373;28;20037;-80
2023/02/17 08:00:47;;;;;;;13.02;8.10;;;;;;;10.11;100.00;101604.75;4990862;28;20046;-82
2023/02/17 08:03:12;;;;;;;14.70;8.10;;;;;;;10.12;100.00;101608.16;4990062;28;20026;-80
2023/02/17 08:05:40;;;;;;;14.32;8.57;;;;;;;10.18;100.00;101605.03;5002648;28;20563;-81
2023/02/17 08:13:33;;;;;;;11.98;7.18;;;;;;;10.30;100.00;101610.91;5016647;28;20078;-81
2023/02/17 08:15:59;;;;;;;11.05;6.90;;;;;;;10.27;100.00;101612.00;5011676;28;22378;-81
2023/02/17 08:18:24;;;;;;;12.13;6.05;;;;;;;10.30;100.00;101608.31;4993754;28;20034;-81
2023/02/17 08:20:50;;;;;;;10.10;6.38;;;;;;;10.42;100.00;101604.69;4992618;28;20140;-80
2023/02/17 08:23:15;;;;;;;10.55;6.40;;;;;;;10.50;100.00;101601.41;4976663;28;20034;-81
2023/02/17 08:25:41;;;;;;;13.05;6.80;;;;;;;10.44;100.00;101594.19;4978518;28;20057;-79
2023/02/17 08:28:06;;;;;;;13.02;7.10;;;;;;;10.36;100.00;101605.22;4995591;28;20034;-78
2023/02/17 08:30:35;;;;;;;10.20;7.03;;;;;;;10.51;100.00;101588.31;5011383;28;20044;-79
2023/02/17 08:33:00;;;;;;;12.65;7.47;;;;;;;10.58;100.00;101596.34;4994227;28;20203;-79
2023/02/17 08:35:27;;;;;;;11.60;7.68;;;;;;;10.57;100.00;101599.06;4975113;28;20049;-80
2023/02/17 08:37:52;;;;;;;14.63;7.35;;;;;;;10.61;100.00;101603.06;4986845;28;20061;-80
2023/02/17 08:40:18;;;;;;;15.18;7.78;;;;;;;10.70;100.00;101602.25;5007910;28;20758;-77
2023/02/17 08:42:43;;;;;;;12.90;7.15;;;;;;;10.72;100.00;101608.09;5011461;28;20124;-81
2023/02/17 08:45:11;;;;;;;15.65;8.45;;;;;;;10.70;100.00;101607.44;4978650;28;20033;-82
2023/02/17 08:47:36;;;;;;;27.35;15.48;;;;;;;10.71;100.00;101611.66;4992111;28;20037;-79
2023/02/17 08:50:04;;;;;;;17.65;9.88;;;;;;;10.82;100.00;101595.94;5008874;28;20038;-83
2023/02/17 08:52:29;;;;;;;11.95;7.85;;;;;;;10.95;100.00;101603.44;4977508;28;20073;-81
2023/02/17 08:54:55;;;;;;;13.77;7.20;;;;;;;10.97;100.00;101591.13;5009266;28;20033;-82
2023/02/17 08:57:21;;;;;;;13.40;7.28;;;;;;;11.02;100.00;101596.75;4974509;28;20038;-80
2023/02/17 08:59:48;;;;;;;11.30;7.38;;;;;;;11.00;100.00;101600.41;4980595;28;21073;-80
2023/02/17 09:02:15;;;;;;;11.48;7.63;;;;;;;11.02;100.00;101601.09;4983784;28;20125;-81
2023/02/17 09:04:42;;;;;;;12.70;7.60;;;;;;;11.03;100.00;101608.75;4990524;28;20535;-81
2023/02/17 09:07:12;;;;;;;15.55;8.13;;;;;;;11.08;100.00;101596.16;4990460;28;20122;-81
2023/02/17 09:09:37;;;;;;;11.32;7.40;;;;;;;10.98;100.00;101607.53;4994061;28;20106;-81
2023/02/17 09:12:03;;;;;;;12.80;7.80;;;;;;;11.06;100.00;101599.88;4974928;28;20030;-79
2023/02/17 09:14:29;;;;;;;13.57;7.57;;;;;;;10.99;100.00;101615.16;4990844;28;20113;-81
2023/02/17 09:16:54;;;;;;;12.15;7.38;;;;;;;11.12;100.00;101607.09;4993224;28;20041;-81
2023/02/17 09:19:20;;;;;;;14.57;8.20;;;;;;;11.18;100.00;101606.53;4996056;28;20108;-82
2023/02/17 09:21:47;;;;;;;14.27;7.95;;;;;;;11.10;100.00;101616.81;5009468;28;20048;-82
2023/02/17 09:24:13;;;;;;;13.73;7.85;;;;;;;11.19;100.00;101613.38;4994016;28;20045;-79
2023/02/17 09:26:39;;;;;;;13.10;7.78;;;;;;;11.27;100.00;101612.66;4990945;28;20673;-82
2023/02/17 09:29:05;;;;;;;13.45;8.18;;;;;;;11.27;100.00;101629.06;4994871;28;20037;-81
2023/02/17 09:31:34;;;;;;;16.02;7.82;;;;;;;11.31;100.00;101627.00;4994172;28;20041;-80
2023/02/17 09:34:00;;;;;;;11.02;7.00;;;;;;;11.39;100.00;101621.91;4993345;28;20041;-80
2023/02/17 09:36:29;;;;;;;12.23;8.40;;;;;;;11.31;100.00;101624.41;5007576;28;20413;-80
2023/02/17 09:38:55;;;;;;;12.00;7.22;;;;;;;11.35;100.00;101615.38;4993916;28;20156;-81
2023/02/17 09:41:23;;;;;;;13.00;6.85;;;;;;;11.40;100.00;101614.97;4993392;28;20124;-81
2023/02/17 09:43:51;;;;;;;12.65;6.30;;;;;;;11.60;100.00;101605.31;5025327;28;20140;-81
2023/02/17 09:46:28;;;;;;;11.52;6.63;;;;;;;11.59;100.00;101612.28;4994249;28;20076;-78
2023/02/17 09:49:02;;;;;;;12.13;6.70;;;;;;;11.65;100.00;101626.47;5021834;28;20042;-80
2023/02/17 09:51:34;;;;;;;9.98;5.88;;;;;;;11.71;100.00;101619.91;4991087;28;20038;-77
2023/02/17 09:54:09;;;;;;;10.00;6.22;;;;;;;11.67;100.00;101609.78;5006316;28;20057;-81
2023/02/17 09:56:42;;;;;;;14.23;7.47;;;;;;;11.71;100.00;101612.09;4992895;28;20037;-81
2023/02/17 09:59:37;;;;;;;8.77;5.72;;;;;;;11.73;100.00;101615.38;4988929;28;20038;-79
2023/02/17 10:02:18;;;;;;;14.77;7.80;;;;;;;11.65;100.00;101626.47;4992390;28;20048;-80
2023/02/17 10:04:46;;;;;;;10.82;6.13;;;;;;;11.78;100.00;101620.97;5007525;28;20042;-79
2023/02/17 10:07:28;;;;;;;13.18;5.97;;;;;;;11.91;99.28;101625.88;5001974;28;20597;-79
2023/02/17 10:10:09;;;;;;;9.63;5.78;;;;;;;11.87;99.26;101633.91;4988288;28;20124;-79
2023/02/17 10:12:43;;;;;;;8.27;5.15;;;;;;;12.05;99.52;101643.56;4998532;28;20049;-80
2023/02/17 10:15:18;;;;;;;8.63;4.90;;;;;;;12.17;98.47;101639.81;4990089;28;20038;-80
2023/02/17 10:17:56;;;;;;;8.35;4.85;;;;;;;12.25;97.79;101632.09;4996399;28;20649;-79
2023/02/17 10:20:23;;;;;;;8.00;4.90;;;;;;;12.28;97.51;101628.38;4993713;28;20045;-79
2023/02/17 10:22:58;;;;;;;11.93;5.55;;;;;;;12.31;96.93;101635.88;4996573;28;20065;-80
2023/02/17 10:25:43;;;;;;;7.63;4.50;;;;;;;12.27;97.76;101632.75;4987705;28;20048;-80
2023/02/17 10:28:16;;;;;;;9.23;4.57;;;;;;;12.38;96.70;101629.13;4996234;28;20040;-80
2023/02/17 10:30:58;;;;;;;;;;;;;;;12.37;96.70;101631.88;5008453;28;20037;-80
2023/02/17 10:33:34;;;;;;;12.60;4.90;;;;;;;12.44;96.46;101632.94;5021961;28;19913;-80
2023/02/17 10:36:05;;;;;;;12.15;4.53;;;;;;;12.46;96.09;101641.41;5005767;28;20069;-81
2023/02/17 10:38:37;;;;;;;10.90;4.72;;;;;;;12.46;95.96;101647.41;4992552;28;20490;-77
2023/02/17 10:41:08;;;;;;;8.88;4.25;;;;;;;12.48;96.13;101646.47;5001919;28;20133;-80
2023/02/17 10:43:33;;;;;;;7.53;4.00;;;;;;;12.52;96.19;101648.59;4989467;28;20030;-78
2023/02/17 10:46:02;;;;;;;10.95;4.68;;;;;;;12.51;96.22;101652.19;5006543;28;20030;-81
2023/02/17 10:48:37;;;;;;;7.93;4.50;;;;;;;12.38;96.80;101649.94;5009862;28;20061;-79
2023/02/17 10:51:03;;;;;;;9.20;4.35;;;;;;;12.45;96.04;101632.78;4976632;28;20104;-80
2023/02/17 10:53:31;;;;;;;11.82;4.32;;;;;;;12.53;96.06;101639.03;4990591;28;20034;-80
2023/02/17 10:56:35;;;;;;;8.27;4.35;;;;;;;12.51;96.49;101641.78;5007833;28;20403;-81
2023/02/17 10:59:19;;;;;;;;;;;;;;;12.61;96.06;101655.53;4965818;28;20920;-81
2023/02/17 11:01:44;;;;;;;7.63;3.95;;;;;;;12.76;95.08;101644.59;5017041;28;19929;-79
2023/02/17 11:04:11;;;;;;;6.93;3.80;;;;;;;12.71;94.55;101647.63;4998007;28;20034;-76
2023/02/17 11:06:43;;;;;;;6.85;4.07;;;;;;;12.71;94.76;101636.41;5023506;28;20426;-80
2023/02/17 11:09:32;;;;;;;7.78;4.30;;;;;;;12.82;93.88;101651.81;5008401;28;20030;-80
2023/02/17 11:11:59;;;;;;;7.55;3.78;;;;;;;12.76;93.92;101637.59;4987318;28;20037;-81
2023/02/17 11:14:31;;;;;;;8.32;3.90;;;;;;;12.85;93.57;101626.28;4991738;28;20034;-79
2023/02/17 11:16:59;;;;;;;6.70;3.65;;;;;;;12.95;93.05;101626.19;4990373;28;20034;-80
2023/02/17 11:19:33;;;;;;;6.50;4.00;;;;;;;13.12;92.48;101621.13;5008324;28;20021;-80
2023/02/17 11:21:59;;;;;;;7.43;3.95;;;;;;;13.08;91.91;101614.59;5004329;28;20108;-83
2023/02/17 11:24:26;;;;;;;9.32;4.20;;;;;;;13.19;91.94;101602.13;4993194;28;20044;-79
2023/02/17 11:27:04;;;;;;;6.53;3.65;;;;;;;13.29;91.44;101601.19;4990514;28;20034;-81
2023/02/17 11:29:29;;;;;;;8.98;3.75;;;;;;;13.40;90.10;101593.16;4992955;28;20596;-79